createdAt,value
2018-07-13T00:00:12.177Z,18.90
2018-07-13T00:02:41.071Z,18.90
2018-07-13T00:05:10.995Z,18.90
2018-07-13T00:07:39.529Z,18.90
2018-07-13T00:10:08.079Z,18.90
2018-07-13T00:12:36.773Z,18.90
2018-07-13T00:15:08.548Z,18.90
2018-07-13T00:17:37.089Z,18.90
2018-07-13T00:20:05.892Z,18.80
2018-07-13T00:22:34.498Z,18.90
2018-07-13T00:25:03.021Z,18.90
2018-07-13T00:27:31.566Z,18.90
2018-07-13T00:30:00.134Z,18.80
2018-07-13T00:32:28.651Z,18.80
2018-07-13T00:34:57.173Z,18.80
2018-07-13T00:37:29.899Z,18.80
2018-07-13T00:39:58.452Z,18.80
2018-07-13T00:42:26.992Z,18.70
2018-07-13T00:44:55.503Z,18.70
2018-07-13T00:47:24.021Z,18.70
2018-07-13T00:49:52.602Z,18.70
2018-07-13T00:52:21.161Z,18.70
2018-07-13T00:54:49.665Z,18.70
2018-07-13T00:57:18.258Z,18.70
2018-07-13T00:59:46.791Z,18.70
2018-07-13T01:02:15.315Z,18.70
2018-07-13T01:04:43.893Z,18.60
2018-07-13T01:07:12.514Z,18.60
2018-07-13T01:09:41.037Z,18.60
2018-07-13T01:12:10.060Z,18.60
2018-07-13T01:14:39.138Z,18.60
2018-07-13T01:17:07.700Z,18.60
2018-07-13T01:19:36.253Z,18.60
2018-07-13T01:22:04.874Z,18.60
2018-07-13T01:24:33.398Z,18.50
2018-07-13T01:27:01.931Z,18.50
2018-07-13T01:29:30.496Z,18.50
2018-07-13T01:31:59.641Z,18.50
2018-07-13T01:34:28.194Z,18.50
2018-07-13T01:36:56.701Z,18.50
2018-07-13T01:39:25.334Z,18.40
2018-07-13T01:41:53.901Z,18.40
2018-07-13T01:44:22.410Z,18.40
2018-07-13T01:46:50.958Z,18.40
2018-07-13T01:49:19.489Z,18.40
2018-07-13T01:51:48.033Z,18.40
2018-07-13T01:54:17.182Z,18.40
2018-07-13T01:56:46.688Z,18.40
2018-07-13T01:59:15.213Z,18.40
2018-07-13T02:01:43.715Z,18.40
2018-07-13T02:04:12.233Z,18.40
2018-07-13T02:06:40.905Z,18.40
2018-07-13T02:09:10.457Z,18.40
2018-07-13T02:11:39.010Z,18.40
2018-07-13T02:14:08.271Z,18.40
2018-07-13T02:16:36.816Z,18.40
2018-07-13T02:19:06.965Z,18.40
2018-07-13T02:21:35.527Z,18.30
2018-07-13T02:24:04.042Z,18.30
2018-07-13T02:26:32.672Z,18.30
2018-07-13T02:29:01.197Z,18.30
2018-07-13T02:31:29.923Z,18.30
2018-07-13T02:33:58.487Z,18.30
2018-07-13T02:36:27.037Z,18.30
2018-07-13T02:38:55.573Z,18.30
2018-07-13T02:43:52.789Z,18.30
2018-07-13T02:46:21.316Z,18.30
2018-07-13T02:48:50.056Z,18.30
2018-07-13T02:51:18.681Z,18.30
2018-07-13T02:53:47.195Z,18.30
2018-07-13T02:56:16.085Z,18.30
2018-07-13T02:58:44.616Z,18.30
2018-07-13T03:01:13.125Z,18.30
2018-07-13T03:03:41.658Z,18.30
2018-07-13T03:06:10.190Z,18.30
2018-07-13T03:11:07.201Z,18.30
2018-07-13T03:13:35.829Z,18.30
2018-07-13T03:16:04.482Z,18.30
2018-07-13T03:18:33.371Z,18.30
2018-07-13T03:21:02.070Z,18.20
2018-07-13T03:23:32.676Z,18.20
2018-07-13T03:26:01.225Z,18.20
2018-07-13T03:28:29.741Z,18.20
2018-07-13T03:30:58.285Z,18.20
2018-07-13T03:35:55.086Z,18.20
2018-07-13T03:38:23.708Z,18.20
2018-07-13T03:40:52.247Z,18.20
2018-07-13T03:43:21.761Z,18.20
2018-07-13T03:45:50.335Z,18.10
2018-07-13T03:48:18.868Z,18.20
2018-07-13T03:50:47.493Z,18.10
2018-07-13T03:55:45.506Z,18.10
2018-07-13T03:58:14.049Z,18.10
2018-07-13T04:00:43.195Z,18.10
2018-07-13T04:03:12.205Z,18.10
2018-07-13T04:05:40.719Z,18.10
2018-07-13T04:08:09.374Z,18.10
2018-07-13T04:10:37.965Z,18.10
2018-07-13T04:13:06.621Z,18.10
2018-07-13T04:15:35.821Z,18.10
2018-07-13T04:18:04.406Z,18.10
2018-07-13T04:20:33.493Z,18.10
2018-07-13T04:23:02.081Z,18.10
2018-07-13T04:25:30.650Z,18.10
2018-07-13T04:27:59.169Z,18.10
2018-07-13T04:30:27.700Z,18.10
2018-07-13T04:32:56.222Z,18.10
2018-07-13T04:35:24.756Z,18.20
2018-07-13T04:40:21.553Z,18.20
2018-07-13T04:42:50.147Z,18.20
2018-07-13T04:45:18.778Z,18.20
2018-07-13T04:47:47.369Z,18.20
2018-07-13T04:50:16.054Z,18.30
2018-07-13T04:52:44.532Z,18.30
2018-07-13T04:55:13.100Z,18.30
2018-07-13T04:57:41.650Z,18.30
2018-07-13T05:00:10.270Z,18.40
2018-07-13T05:02:38.901Z,18.40
2018-07-13T05:05:07.823Z,18.40
2018-07-13T05:07:36.441Z,18.40
2018-07-13T05:12:33.357Z,18.50
2018-07-13T05:15:01.890Z,18.50
2018-07-13T05:17:31.528Z,18.50
2018-07-13T05:20:00.056Z,18.50
2018-07-13T05:22:28.590Z,18.50
2018-07-13T05:24:57.169Z,18.50
2018-07-13T05:27:25.911Z,18.50
2018-07-13T05:29:54.469Z,18.60
2018-07-13T05:32:22.995Z,18.60
2018-07-13T05:34:51.573Z,18.60
2018-07-13T05:37:20.171Z,18.60
2018-07-13T05:39:49.054Z,18.60
2018-07-13T05:42:17.892Z,18.60
2018-07-13T05:44:46.453Z,18.60
2018-07-13T05:47:15.877Z,18.60
2018-07-13T05:49:44.501Z,18.60
2018-07-13T05:52:13.122Z,18.70
2018-07-13T05:54:41.732Z,18.70
2018-07-13T05:57:10.359Z,18.70
2018-07-13T05:59:38.938Z,18.70
2018-07-13T06:02:07.575Z,18.70
2018-07-13T06:04:36.150Z,18.70
2018-07-13T06:07:04.731Z,18.70
2018-07-13T06:09:33.865Z,18.70
2018-07-13T06:12:02.567Z,18.70
2018-07-13T06:14:31.170Z,18.70
2018-07-13T06:16:59.722Z,18.70
2018-07-13T06:19:28.297Z,18.70
2018-07-13T06:21:57.521Z,18.70
2018-07-13T06:24:26.138Z,18.70
2018-07-13T06:26:54.766Z,18.80
2018-07-13T06:29:23.408Z,18.80
2018-07-13T06:31:52.015Z,18.80
2018-07-13T06:34:21.472Z,18.80
2018-07-13T06:36:50.028Z,18.90
2018-07-13T06:39:19.229Z,19.00
2018-07-13T06:41:48.698Z,19.10
2018-07-13T06:44:17.266Z,19.10
2018-07-13T06:46:47.355Z,19.30
2018-07-13T06:49:16.633Z,19.30
2018-07-13T06:51:47.301Z,19.40
2018-07-13T06:54:16.261Z,19.40
2018-07-13T06:56:44.793Z,19.40
2018-07-13T06:59:20.650Z,19.50
2018-07-13T07:01:49.482Z,19.50
2018-07-13T07:04:23.697Z,19.50
2018-07-13T07:06:55.560Z,19.50
2018-07-13T07:09:24.901Z,19.50
2018-07-13T07:13:07.885Z,19.50
2018-07-13T07:15:36.718Z,19.60
2018-07-13T07:18:05.254Z,19.60
2018-07-13T07:20:34.808Z,19.70
2018-07-13T07:23:03.358Z,19.80
2018-07-13T07:25:32.005Z,19.90
2018-07-13T07:28:00.517Z,20.00
2018-07-13T07:30:29.118Z,20.20
2018-07-13T07:32:57.645Z,20.30
2018-07-13T07:35:26.472Z,20.40
2018-07-13T07:37:55.973Z,20.40
2018-07-13T07:40:24.574Z,20.50
2018-07-13T07:42:53.105Z,20.50
2018-07-13T07:45:21.629Z,20.60
2018-07-13T07:47:50.185Z,20.80
2018-07-13T07:50:18.732Z,20.80
2018-07-13T07:52:47.263Z,21.00
2018-07-13T07:55:16.654Z,21.20
2018-07-13T07:57:45.474Z,21.40
2018-07-13T08:00:14.010Z,21.50
2018-07-13T08:02:42.586Z,21.50
2018-07-13T08:05:11.166Z,21.60
2018-07-13T08:07:39.911Z,21.60
2018-07-13T08:10:08.429Z,21.70
2018-07-13T08:12:37.458Z,21.70
2018-07-13T08:15:06.047Z,21.80
2018-07-13T08:17:34.651Z,21.90
2018-07-13T08:20:04.161Z,22.00
2018-07-13T08:22:37.758Z,22.00
2018-07-13T08:25:07.209Z,22.10
2018-07-13T08:27:46.545Z,22.10
2018-07-13T08:30:22.582Z,22.30
2018-07-13T08:32:51.881Z,22.50
2018-07-13T08:35:20.666Z,22.60
2018-07-13T08:37:49.567Z,22.60
2018-07-13T08:40:19.100Z,22.60
2018-07-13T08:42:47.642Z,22.60
2018-07-13T08:45:16.201Z,22.40
2018-07-13T08:47:44.725Z,22.30
2018-07-13T08:50:13.329Z,22.20
2018-07-13T08:52:41.809Z,22.10
2018-07-13T08:55:12.882Z,21.90
2018-07-13T08:57:43.410Z,21.80
2018-07-13T09:00:11.929Z,21.80
2018-07-13T09:02:41.346Z,21.80
2018-07-13T09:05:10.485Z,21.90
2018-07-13T09:07:39.196Z,22.10
2018-07-13T09:12:36.369Z,22.60
2018-07-13T09:15:04.889Z,22.70
2018-07-13T09:17:33.766Z,22.80
2018-07-13T09:20:02.305Z,22.90
2018-07-13T09:22:30.874Z,23.00
2018-07-13T09:24:59.514Z,23.00
2018-07-13T09:27:28.051Z,23.20
2018-07-13T09:29:56.563Z,23.30
2018-07-13T09:32:25.106Z,23.50
2018-07-13T09:34:53.699Z,23.70
2018-07-13T09:37:22.233Z,23.70
2018-07-13T09:39:51.361Z,23.80
2018-07-13T09:42:19.887Z,23.90
2018-07-13T09:44:48.404Z,24.10
2018-07-13T09:47:17.086Z,24.20
2018-07-13T09:49:45.569Z,24.20
2018-07-13T09:52:14.146Z,24.30
2018-07-13T09:54:43.657Z,24.40
2018-07-13T09:57:12.480Z,24.50
2018-07-13T09:59:41.518Z,24.50
2018-07-13T10:02:10.074Z,24.60
2018-07-13T10:04:38.633Z,24.70
2018-07-13T10:07:07.345Z,24.70
2018-07-13T10:09:35.909Z,24.80
2018-07-13T10:12:04.581Z,24.80
2018-07-13T10:17:01.313Z,24.90
2018-07-13T10:19:29.870Z,24.90
2018-07-13T10:21:58.677Z,24.90
2018-07-13T10:24:28.052Z,24.90
2018-07-13T10:26:58.126Z,25.00
2018-07-13T10:29:31.692Z,25.20
2018-07-13T10:32:00.982Z,25.30
2018-07-13T10:34:30.139Z,25.50
2018-07-13T10:37:01.108Z,25.60
2018-07-13T10:39:30.561Z,25.50
2018-07-13T10:44:27.302Z,25.00
2018-07-13T10:46:55.885Z,25.00
2018-07-13T10:49:24.531Z,25.10
2018-07-13T10:51:53.374Z,25.20
2018-07-13T10:56:50.765Z,25.60
2018-07-13T10:59:19.308Z,25.70
2018-07-13T11:01:47.834Z,25.80
2018-07-13T11:04:17.676Z,25.80
2018-07-13T11:06:46.236Z,25.60
2018-07-13T11:09:14.793Z,25.70
2018-07-13T11:11:43.352Z,26.00
2018-07-13T11:14:11.869Z,26.10
2018-07-13T11:16:41.168Z,26.20
2018-07-13T11:19:09.721Z,26.20
2018-07-13T11:21:38.874Z,26.10
2018-07-13T11:24:07.459Z,25.90
2018-07-13T11:26:37.046Z,25.90
2018-07-13T11:29:05.609Z,25.90
2018-07-13T11:31:34.799Z,26.00
2018-07-13T11:34:04.214Z,26.20
2018-07-13T11:36:32.766Z,26.40
2018-07-13T11:39:01.314Z,26.60
2018-07-13T11:41:29.850Z,26.70
2018-07-13T11:43:59.116Z,26.80
2018-07-13T11:46:27.671Z,26.80
2018-07-13T11:48:56.194Z,26.90
2018-07-13T11:51:24.842Z,27.10
2018-07-13T11:53:53.693Z,27.20
2018-07-13T11:56:22.914Z,27.40
2018-07-13T11:58:51.441Z,27.30
2018-07-13T12:01:19.998Z,27.20
2018-07-13T12:03:48.510Z,27.30
2018-07-13T12:06:17.058Z,27.30
2018-07-13T12:08:48.253Z,27.30
2018-07-13T12:11:17.276Z,27.40
2018-07-13T12:13:46.049Z,27.50
2018-07-13T12:16:15.549Z,27.50
2018-07-13T12:18:44.106Z,27.60
2018-07-13T12:21:12.646Z,27.70
2018-07-13T12:23:41.519Z,27.70
2018-07-13T12:26:10.073Z,27.80
2018-07-13T12:28:38.603Z,27.90
2018-07-13T12:31:08.265Z,27.90
2018-07-13T12:33:36.794Z,27.90
2018-07-13T12:36:06.564Z,27.90
2018-07-13T12:38:35.089Z,27.90
2018-07-13T12:41:03.617Z,28.00
2018-07-13T12:43:32.141Z,27.90
2018-07-13T12:46:00.707Z,28.00
2018-07-13T12:48:29.218Z,28.00
2018-07-13T12:50:57.845Z,28.00
2018-07-13T12:53:26.396Z,28.00
2018-07-13T12:55:55.325Z,28.10
2018-07-13T12:58:23.868Z,28.10
2018-07-13T13:00:52.508Z,28.10
2018-07-13T13:03:21.074Z,28.10
2018-07-13T13:05:49.610Z,28.00
2018-07-13T13:08:18.233Z,28.00
2018-07-13T13:10:46.873Z,28.00
2018-07-13T13:15:46.242Z,28.00
2018-07-13T13:18:14.785Z,28.10
2018-07-13T13:20:43.349Z,28.00
2018-07-13T13:23:14.281Z,27.90
2018-07-13T13:25:44.238Z,27.80
2018-07-13T13:28:13.342Z,27.60
2018-07-13T13:30:42.019Z,27.50
2018-07-13T13:33:10.554Z,27.30
2018-07-13T13:35:39.245Z,27.10
2018-07-13T13:38:07.825Z,26.90
2018-07-13T13:40:36.546Z,26.90
2018-07-13T13:43:05.062Z,26.90
2018-07-13T13:45:33.690Z,26.90
2018-07-13T13:48:02.206Z,26.80
2018-07-13T13:50:30.940Z,26.70
2018-07-13T13:52:59.474Z,26.80
2018-07-13T13:55:28.031Z,27.00
2018-07-13T13:57:56.550Z,27.10
2018-07-13T14:00:25.074Z,27.10
2018-07-13T14:02:53.602Z,27.10
2018-07-13T14:05:22.319Z,27.20
2018-07-13T14:07:50.928Z,27.30
2018-07-13T14:10:19.552Z,27.20
2018-07-13T14:12:48.117Z,27.20
2018-07-13T14:15:16.661Z,27.20
2018-07-13T14:17:45.190Z,27.20
2018-07-13T14:20:13.718Z,27.20
2018-07-13T14:22:43.275Z,27.10
2018-07-13T14:25:11.819Z,27.10
2018-07-13T14:27:40.420Z,27.00
2018-07-13T14:30:09.541Z,26.90
2018-07-13T14:32:38.238Z,26.70
2018-07-13T14:35:07.126Z,26.50
2018-07-13T14:37:36.470Z,26.50
2018-07-13T14:40:05.005Z,26.30
2018-07-13T14:42:33.558Z,26.20
2018-07-13T14:45:02.074Z,26.10
2018-07-13T14:47:30.950Z,25.90
2018-07-13T14:50:00.614Z,25.80
2018-07-13T14:52:29.181Z,25.60
2018-07-13T14:54:57.722Z,25.60
2018-07-13T14:57:26.571Z,25.40
2018-07-13T14:59:55.098Z,25.30
2018-07-13T15:02:23.634Z,25.30
2018-07-13T15:04:52.876Z,25.20
2018-07-13T15:07:21.429Z,25.10
2018-07-13T15:09:50.407Z,25.00
2018-07-13T15:12:18.933Z,24.90
2018-07-13T15:17:16.187Z,24.80
2018-07-13T15:19:46.077Z,24.70
2018-07-13T15:22:14.666Z,24.70
2018-07-13T15:24:43.198Z,24.70
2018-07-13T15:27:11.718Z,24.60
2018-07-13T15:29:40.290Z,24.50
2018-07-13T15:32:08.840Z,24.50
2018-07-13T15:34:37.566Z,24.50
2018-07-13T15:37:06.115Z,24.40
2018-07-13T15:42:02.939Z,24.20
2018-07-13T15:44:31.485Z,24.20
2018-07-13T15:46:59.995Z,24.20
2018-07-13T15:49:29.837Z,24.20
2018-07-13T15:51:59.341Z,24.20
2018-07-13T15:54:28.707Z,24.10
2018-07-13T15:56:57.602Z,24.00
2018-07-13T15:59:26.345Z,24.00
2018-07-13T16:01:57.045Z,24.00
2018-07-13T16:04:25.605Z,24.00
2018-07-13T16:06:55.089Z,24.00
2018-07-13T16:09:24.235Z,24.00
2018-07-13T16:11:53.110Z,24.00
2018-07-13T16:14:22.007Z,23.90
2018-07-13T16:16:50.901Z,23.90
2018-07-13T16:19:19.426Z,23.90
2018-07-13T16:21:48.202Z,23.90
2018-07-13T16:24:16.822Z,23.90
2018-07-13T16:26:45.340Z,23.90
2018-07-13T16:29:14.892Z,23.80
2018-07-13T16:31:43.423Z,23.80
2018-07-13T16:34:12.106Z,23.80
2018-07-13T16:36:40.671Z,23.80
2018-07-13T16:39:09.210Z,23.80
2018-07-13T16:41:37.754Z,23.70
2018-07-13T16:44:06.400Z,23.60
2018-07-13T16:46:35.033Z,23.60
2018-07-13T16:49:03.584Z,23.50
2018-07-13T16:51:32.162Z,23.50
2018-07-13T16:54:00.719Z,23.50
2018-07-13T16:56:29.276Z,23.50
2018-07-13T16:58:57.828Z,23.50
2018-07-13T17:01:26.356Z,23.50
2018-07-13T17:03:55.683Z,23.40
2018-07-13T17:06:24.229Z,23.50
2018-07-13T17:08:52.787Z,23.50
2018-07-13T17:11:21.915Z,23.40
2018-07-13T17:13:51.114Z,23.40
2018-07-13T17:16:19.645Z,23.40
2018-07-13T17:18:49.938Z,23.40
2018-07-13T17:21:18.460Z,23.40
2018-07-13T17:23:49.238Z,23.30
2018-07-13T17:26:17.831Z,23.30
2018-07-13T17:28:46.332Z,23.20
2018-07-13T17:31:15.199Z,23.20
2018-07-13T17:33:44.585Z,23.20
2018-07-13T17:36:14.212Z,23.20
2018-07-13T17:38:43.340Z,23.10
2018-07-13T17:41:11.947Z,23.10
2018-07-13T17:43:40.595Z,23.10
2018-07-13T17:46:10.340Z,23.00
2018-07-13T17:48:39.439Z,23.00
2018-07-13T17:51:09.166Z,22.90
2018-07-13T17:53:39.355Z,22.90
2018-07-13T17:56:07.927Z,22.90
2018-07-13T17:58:36.488Z,22.80
2018-07-13T18:01:06.160Z,22.80
2018-07-13T18:03:34.596Z,22.70
2018-07-13T18:06:03.146Z,22.70
2018-07-13T18:08:32.275Z,22.60
2018-07-13T18:11:00.802Z,22.60
2018-07-13T18:13:29.329Z,22.50
2018-07-13T18:15:57.873Z,22.50
2018-07-13T18:18:26.406Z,22.50
2018-07-13T18:20:54.945Z,22.50
2018-07-13T18:23:23.671Z,22.40
2018-07-13T18:25:52.201Z,22.40
2018-07-13T18:28:20.738Z,22.40
2018-07-13T18:30:49.922Z,22.40
2018-07-13T18:33:18.503Z,22.30
2018-07-13T18:38:15.281Z,22.20
2018-07-13T18:40:43.838Z,22.20
2018-07-13T18:43:12.382Z,22.20
2018-07-13T18:45:41.772Z,22.10
2018-07-13T18:48:10.314Z,22.10
2018-07-13T18:50:39.894Z,22.00
2018-07-13T18:53:08.421Z,22.00
2018-07-13T18:55:36.996Z,22.00
2018-07-13T18:58:05.795Z,21.90
2018-07-13T19:00:34.371Z,22.00
2018-07-13T19:03:03.542Z,21.90
2018-07-13T19:05:32.102Z,21.90
2018-07-13T19:08:00.614Z,21.80
2018-07-13T19:10:29.314Z,21.80
2018-07-13T19:12:58.006Z,21.70
2018-07-13T19:15:28.394Z,21.70
2018-07-13T19:17:57.114Z,21.70
2018-07-13T19:20:25.649Z,21.60
2018-07-13T19:22:54.234Z,21.60
2018-07-13T19:25:23.640Z,21.60
2018-07-13T19:27:52.207Z,21.60
2018-07-13T19:30:20.791Z,21.50
2018-07-13T19:32:49.373Z,21.50
2018-07-13T19:35:19.218Z,21.50
2018-07-13T19:37:47.906Z,21.40
2018-07-13T19:40:16.464Z,21.40
2018-07-13T19:42:45.610Z,21.40
2018-07-13T19:45:15.131Z,21.30
2018-07-13T19:47:43.766Z,21.30
2018-07-13T19:50:12.323Z,21.30
2018-07-13T19:52:40.838Z,21.20
2018-07-13T19:55:09.945Z,21.20
2018-07-13T19:57:38.578Z,21.20
2018-07-13T20:00:07.140Z,21.10
2018-07-13T20:02:35.742Z,21.10
2018-07-13T20:05:04.322Z,21.00
2018-07-13T20:07:32.978Z,21.00
2018-07-13T20:10:01.646Z,21.00
2018-07-13T20:12:30.197Z,21.00
2018-07-13T20:14:58.802Z,21.00
2018-07-13T20:17:27.441Z,20.90
2018-07-13T20:19:56.015Z,20.80
2018-07-13T20:22:24.565Z,20.90
2018-07-13T20:24:54.097Z,20.80
2018-07-13T20:27:22.942Z,20.80
2018-07-13T20:29:51.472Z,20.70
2018-07-13T20:32:19.992Z,20.70
2018-07-13T20:34:48.513Z,20.70
2018-07-13T20:37:17.241Z,20.70
2018-07-13T20:39:45.796Z,20.60
2018-07-13T20:42:15.478Z,20.60
2018-07-13T20:44:45.417Z,20.60
2018-07-13T20:47:15.358Z,20.50
2018-07-13T20:49:44.129Z,20.50
2018-07-13T20:52:12.704Z,20.50
2018-07-13T20:54:42.589Z,20.40
2018-07-13T20:57:11.150Z,20.40
2018-07-13T20:59:39.974Z,20.40
2018-07-13T21:02:08.558Z,20.40
2018-07-13T21:04:37.191Z,20.40
2018-07-13T21:07:06.838Z,20.30
2018-07-13T21:09:35.407Z,20.30
2018-07-13T21:12:04.812Z,20.30
2018-07-13T21:14:34.041Z,20.30
2018-07-13T21:17:02.598Z,20.30
2018-07-13T21:19:31.118Z,20.20
2018-07-13T21:21:59.653Z,20.30
2018-07-13T21:24:28.214Z,20.20
2018-07-13T21:26:56.821Z,20.10
2018-07-13T21:29:25.317Z,20.10
2018-07-13T21:31:53.931Z,20.10
2018-07-13T21:34:22.471Z,20.10
2018-07-13T21:36:51.691Z,20.10
2018-07-13T21:39:20.209Z,20.10
2018-07-13T21:41:48.975Z,20.00
2018-07-13T21:44:17.534Z,20.00
2018-07-13T21:46:46.283Z,20.00
2018-07-13T21:49:14.819Z,19.90
2018-07-13T21:51:43.398Z,19.90
2018-07-13T21:54:11.957Z,19.90
2018-07-13T21:56:40.867Z,19.80
2018-07-13T21:59:09.410Z,19.90
2018-07-13T22:01:38.317Z,19.80
2018-07-13T22:04:06.829Z,19.80
2018-07-13T22:06:35.362Z,19.80
2018-07-13T22:09:04.415Z,19.80
2018-07-13T22:11:32.927Z,19.80
2018-07-13T22:14:01.446Z,19.80
2018-07-13T22:16:30.490Z,19.80
2018-07-13T22:18:59.033Z,19.70
2018-07-13T22:21:27.535Z,19.70
2018-07-13T22:23:56.039Z,19.60
2018-07-13T22:26:24.626Z,19.50
2018-07-13T22:28:53.101Z,19.50
2018-07-13T22:31:21.630Z,19.50
2018-07-13T22:33:50.129Z,19.50
2018-07-13T22:36:18.650Z,19.40
2018-07-13T22:38:48.111Z,19.40
2018-07-13T22:41:16.610Z,19.40
2018-07-13T22:43:45.240Z,19.40
2018-07-13T22:46:13.789Z,19.40
2018-07-13T22:48:42.309Z,19.40
2018-07-13T22:51:10.884Z,19.40
2018-07-13T22:53:39.384Z,19.30
2018-07-13T22:56:08.713Z,19.30
2018-07-13T22:58:37.217Z,19.30
2018-07-13T23:01:05.745Z,19.20
2018-07-13T23:03:34.282Z,19.20
2018-07-13T23:06:03.038Z,19.20
2018-07-13T23:08:31.577Z,19.20
2018-07-13T23:11:00.449Z,19.20
2018-07-13T23:13:29.253Z,19.10
2018-07-13T23:15:58.105Z,19.10
2018-07-13T23:18:26.629Z,19.10
2018-07-13T23:20:55.735Z,19.00
2018-07-13T23:23:24.298Z,19.00
2018-07-13T23:25:52.763Z,19.00
2018-07-13T23:28:21.361Z,18.90
2018-07-13T23:30:49.883Z,18.90
2018-07-13T23:33:18.420Z,18.90
2018-07-13T23:35:47.450Z,18.90
2018-07-13T23:38:16.014Z,18.80
2018-07-13T23:40:44.549Z,18.80
2018-07-13T23:43:13.197Z,18.80
2018-07-13T23:48:09.958Z,18.70
2018-07-13T23:50:38.471Z,18.70
2018-07-13T23:53:06.994Z,18.70
2018-07-13T23:55:35.518Z,18.60
2018-07-13T23:58:04.169Z,18.60
